Main page
METAR-TAF:

METAR-TAF

Airports :

Newcastle Airport

Newcastle upon Tyne, England

latitude: 55-02N, longitude: 001-42W, elevation: 81 m

Current weather observation

The report was made 43 minutes ago, at 15:50 UTC
Wind 7 kt from the East/Southeast, varying between East and South
Temperature 17°C
Humidity 52%
Pressure 1022 hPa
Visibility 10 km or more
Few clouds at a height of 4600 ft

METAR: EGNT 221550Z 11007KT 080V190 9999 FEW046 17/07 Q1022

Time: 17:33 (16:33 UTC)

Forecast

The report was made 5 hours and 32 minutes ago, at 11:01 UTC
Forecast valid from 22 at 12 UTC to 23 at 12 UTC
Wind 8 kt from the East/Northeast
Visibility 10 km or more
Few clouds at a height of 4500 ft
Becoming
from 22 at 16 UTC to 22 at 19 UTC
Wind 10 kt from the Southeast
Becoming
from 22 at 21 UTC to 22 at 24 UTC
Wind 6 kt from the West

TAF: EGNT 221101Z 2212/2312 07008KT 9999 FEW045 BECMG 2216/2219 14010KT BECMG 2221/2224 26006KT

Weather observations and forecasts of more than 4000 airports (METAR and TAF reports).

The available stations are represented by yellow and red dots on the map.

Hover mouse over dot to see the name of the station.

Then click to see weather observations and forecasts.

To change the map : click on the green buttons with a black cross to zoom in, on the green button with a dash to zoom out, or on the green arrows for adjacent maps.


METAR-TAF: